Time;durP1;ratioP1;P1;durP2;ratioP2;P2;SDS_P1;SDS_P2;PMS_P1;PMS_P2;Temp;Humidity;BMP_temperature;BMP_pressure;BME280_temperature;BME280_humidity;BME280_pressure;Samples;Min_cycle;Max_cycle;Signal;HPM_P1;HPM_P2
2022/01/14 00:02:10;;;;;;;15.07;11.90;;;;;;;-1.77;88.84;100723.25;5063499;28;20830;-70
2022/01/14 00:04:38;;;;;;;13.90;9.73;;;;;;;-1.80;89.29;100722.28;5064120;28;20196;-69
2022/01/14 00:07:05;;;;;;;17.13;10.20;;;;;;;-1.87;89.66;100695.19;5067588;28;20240;-69
2022/01/14 00:09:33;;;;;;;18.43;10.83;;;;;;;-1.78;89.69;100730.75;5066374;28;20216;-70
2022/01/14 00:12:03;;;;;;;21.67;11.00;;;;;;;-1.80;89.55;100725.66;5067661;28;20688;-69
2022/01/14 00:14:39;;;;;;;23.53;12.10;;;;;;;-1.72;89.35;100736.88;5067917;28;20676;-70
2022/01/14 00:17:10;;;;;;;19.47;11.23;;;;;;;-1.69;89.79;100741.16;5068577;28;20203;-71
2022/01/14 00:19:37;;;;;;;22.40;13.27;;;;;;;-1.69;90.72;100738.66;5068907;28;20203;-70
2022/01/14 00:22:09;;;;;;;22.70;12.03;;;;;;;-1.75;91.43;100738.41;5068689;28;20199;-70
2022/01/14 00:32:58;;;;;;;19.00;11.73;;;;;;;-1.72;91.30;100741.06;5068427;28;20694;-69
2022/01/14 00:35:25;;;;;;;21.67;12.23;;;;;;;-1.65;90.30;100738.81;5068373;28;20210;-69
2022/01/14 00:37:52;;;;;;;18.80;11.57;;;;;;;-1.62;90.72;100741.50;5068800;28;20688;-69
2022/01/14 00:40:19;;;;;;;23.37;13.50;;;;;;;-1.58;90.95;100742.44;5071423;28;20200;-69
2022/01/14 00:42:46;;;;;;;23.97;12.60;;;;;;;-1.62;90.31;100748.16;5072194;28;20691;-70
2022/01/14 00:45:13;;;;;;;19.43;11.97;;;;;;;-1.60;90.20;100752.44;5071757;28;20203;-70
2022/01/14 00:47:40;;;;;;;22.07;13.50;;;;;;;-1.58;90.34;100747.47;5072022;28;20275;-69
2022/01/14 00:50:11;;;;;;;22.20;13.03;;;;;;;-1.62;90.73;100743.13;5071673;28;20204;-70
2022/01/14 00:52:40;;;;;;;25.43;12.33;;;;;;;-1.61;90.11;100752.38;5071470;28;20646;-70
2022/01/14 00:55:11;;;;;;;22.33;12.40;;;;;;;-1.62;89.96;100749.03;5069637;28;20206;-70
2022/01/14 01:00:25;;;;;;;24.80;11.73;;;;;;;-1.58;89.91;100760.03;5068911;28;20207;-69
2022/01/14 01:02:52;;;;;;;19.47;12.00;;;;;;;-1.61;90.28;100760.78;5069187;28;20196;-69
2022/01/14 01:05:20;;;;;;;20.73;12.03;;;;;;;-1.58;90.52;100770.09;5071310;28;20206;-69
2022/01/14 01:07:57;;;;;;;21.27;12.60;;;;;;;-1.62;90.15;100768.28;5071377;28;20228;-70
2022/01/14 01:10:24;;;;;;;24.67;14.00;;;;;;;-1.57;89.82;100751.72;5071661;28;20654;-69
2022/01/14 01:12:54;;;;;;;23.40;12.20;;;;;;;-1.60;89.85;100754.09;5071755;28;20212;-69
2022/01/14 01:15:21;;;;;;;25.30;13.10;;;;;;;-1.55;89.80;100755.13;5070674;28;20200;-70
2022/01/14 01:17:49;;;;;;;20.23;13.20;;;;;;;-1.61;90.00;100764.94;5069320;28;20692;-69
2022/01/14 01:20:18;;;;;;;17.23;11.23;;;;;;;-1.58;89.76;100760.03;5067624;28;20211;-70
2022/01/14 01:22:48;;;;;;;17.57;11.80;;;;;;;-1.60;89.77;100756.63;5070115;28;20192;-69
2022/01/14 01:25:18;;;;;;;22.73;12.70;;;;;;;-1.59;89.44;100743.25;5069950;28;20200;-70
2022/01/14 01:27:47;;;;;;;19.57;10.90;;;;;;;-1.57;88.90;100736.63;5070249;28;20720;-69
2022/01/14 01:30:27;;;;;;;15.40;11.70;;;;;;;-1.59;88.67;100725.66;5069669;28;20196;-70
2022/01/14 01:32:54;;;;;;;20.27;11.03;;;;;;;-1.56;88.49;100713.22;5070951;28;20692;-69
2022/01/14 01:35:22;;;;;;;20.73;11.60;;;;;;;-1.70;88.71;100686.66;5070971;28;20626;-70
2022/01/14 01:37:50;;;;;;;19.30;12.60;;;;;;;-1.72;89.72;100678.22;5071300;28;20656;-69
2022/01/14 01:40:19;;;;;;;22.93;12.43;;;;;;;-1.61;89.55;100694.56;5070280;28;20196;-69
2022/01/14 01:42:47;;;;;;;21.90;11.90;;;;;;;-1.60;89.54;100692.13;5070616;28;20291;-69
2022/01/14 01:45:20;;;;;;;23.13;12.60;;;;;;;-1.62;89.42;100683.66;5070665;28;20206;-69
2022/01/14 01:47:50;;;;;;;26.67;14.30;;;;;;;-1.58;89.64;100695.53;5071196;28;20196;-69
2022/01/14 01:50:20;;;;;;;17.53;11.33;;;;;;;-1.55;89.68;100694.78;5070559;28;20199;-70
2022/01/14 01:52:48;;;;;;;24.60;13.30;;;;;;;-1.50;89.83;100697.50;5069816;28;20220;-70
2022/01/14 01:55:17;;;;;;;25.37;11.43;;;;;;;-1.55;90.09;100683.91;5067144;28;21051;-70
2022/01/14 01:57:44;;;;;;;22.13;12.27;;;;;;;-1.56;90.01;100667.94;5069593;28;20207;-70
2022/01/14 02:00:13;;;;;;;16.43;11.07;;;;;;;-1.56;90.36;100667.94;5067352;28;20235;-70
2022/01/14 02:02:40;;;;;;;25.43;12.63;;;;;;;-1.56;90.64;100667.09;5068513;28;20228;-69
2022/01/14 02:05:08;;;;;;;19.07;12.77;;;;;;;-1.56;90.77;100667.94;5066061;28;20686;-69
2022/01/14 02:07:36;;;;;;;20.00;12.30;;;;;;;-1.58;90.79;100654.44;5068410;28;20192;-69
2022/01/14 02:10:03;;;;;;;19.37;11.73;;;;;;;-1.63;91.09;100641.72;5070348;28;20200;-69
2022/01/14 02:12:37;;;;;;;25.93;12.90;;;;;;;-1.60;91.11;100640.97;5069206;28;20208;-70
2022/01/14 02:15:11;;;;;;;17.63;11.07;;;;;;;-1.62;91.31;100647.59;5067945;28;20286;-69
2022/01/14 02:17:52;;;;;;;18.63;11.20;;;;;;;-1.64;91.52;100652.56;5065571;28;20214;-70
2022/01/14 02:23:07;;;;;;;28.97;15.50;;;;;;;-1.70;93.25;100623.81;5066570;28;20195;-69
2022/01/14 02:25:36;;;;;;;22.03;13.87;;;;;;;-1.63;94.16;100635.81;5065502;28;20292;-70
2022/01/14 02:28:06;;;;;;;24.00;13.40;;;;;;;-1.61;94.30;100629.19;5066695;28;20200;-70
2022/01/14 02:30:34;;;;;;;24.53;13.70;;;;;;;-1.62;93.75;100630.00;5069305;28;20198;-69
2022/01/14 02:33:01;;;;;;;22.23;12.83;;;;;;;-1.61;93.70;100624.16;5070398;28;20684;-69
2022/01/14 02:35:29;;;;;;;21.00;11.10;;;;;;;-1.54;93.62;100632.78;5069643;28;20203;-69
2022/01/14 02:37:56;;;;;;;24.67;12.80;;;;;;;-1.53;93.94;100626.97;5070293;28;20257;-70
2022/01/14 02:40:24;;;;;;;25.43;13.33;;;;;;;-1.72;93.66;100595.25;5069392;28;20745;-69
2022/01/14 02:42:51;;;;;;;21.37;12.80;;;;;;;-1.50;93.25;100612.88;5070221;28;20271;-70
2022/01/14 02:45:19;;;;;;;23.27;13.37;;;;;;;-1.49;92.82;100614.59;5067046;28;20196;-69
2022/01/14 02:47:46;;;;;;;24.80;12.77;;;;;;;-1.57;92.28;100598.34;5067700;28;20192;-69
2022/01/14 02:50:17;;;;;;;21.77;12.63;;;;;;;-1.48;92.06;100598.69;5066851;28;20204;-69
2022/01/14 02:52:56;;;;;;;22.67;12.70;;;;;;;-1.52;91.63;100599.38;5068687;28;20595;-70
2022/01/14 02:55:29;;;;;;;23.57;12.57;;;;;;;-1.47;90.56;100587.81;5068129;28;20204;-69
2022/01/14 02:57:57;;;;;;;18.53;11.87;;;;;;;-1.44;90.78;100587.94;5069380;28;20207;-69
2022/01/14 03:00:28;;;;;;;17.40;12.10;;;;;;;-1.53;90.65;100572.53;5069598;28;20200;-69
2022/01/14 03:02:55;;;;;;;18.60;12.30;;;;;;;-1.47;90.68;100581.94;5070132;28;20680;-69
2022/01/14 03:05:23;;;;;;;20.93;11.47;;;;;;;-1.52;91.68;100584.28;5068936;28;20685;-69
2022/01/14 03:07:51;;;;;;;25.07;13.13;;;;;;;-1.55;92.25;100579.13;5068295;28;20228;-69
2022/01/14 03:10:19;;;;;;;25.33;13.97;;;;;;;-1.58;93.02;100574.00;5066167;28;20261;-70
2022/01/14 03:12:47;;;;;;;24.23;12.60;;;;;;;-1.71;93.14;100556.72;5066768;28;20311;-70
2022/01/14 03:15:15;;;;;;;20.27;13.57;;;;;;;-1.65;93.25;100565.38;5066952;28;20200;-69
2022/01/14 03:17:43;;;;;;;19.90;11.30;;;;;;;-1.63;93.32;100565.44;5069642;28;20665;-69
2022/01/14 03:20:24;;;;;;;21.23;13.20;;;;;;;-1.65;93.32;100554.47;5068422;28;20200;-69
2022/01/14 03:23:03;;;;;;;16.40;11.20;;;;;;;-1.72;92.84;100545.84;5069373;28;20287;-69
2022/01/14 03:25:47;;;;;;;16.60;10.93;;;;;;;-1.71;92.18;100545.03;5065632;28;20656;-69
2022/01/14 03:28:15;;;;;;;20.40;10.67;;;;;;;-1.79;91.60;100540.53;5068052;28;20254;-70
2022/01/14 03:30:42;;;;;;;18.57;11.27;;;;;;;-1.72;91.22;100542.47;5067467;28;20672;-69
2022/01/14 03:33:09;;;;;;;18.83;11.07;;;;;;;-1.71;91.42;100534.13;5066349;28;20307;-69
2022/01/14 03:35:36;;;;;;;17.53;11.03;;;;;;;-1.70;91.42;100528.28;5066171;28;20674;-69
2022/01/14 03:38:04;;;;;;;18.50;10.97;;;;;;;-1.67;90.83;100518.34;5069305;28;20578;-69
2022/01/14 03:40:31;;;;;;;18.47;11.43;;;;;;;-1.63;90.51;100512.63;5069073;28;20196;-69
2022/01/14 03:42:58;;;;;;;16.57;10.80;;;;;;;-1.59;90.32;100511.97;5069344;28;20265;-69
2022/01/14 03:45:25;;;;;;;17.03;11.20;;;;;;;-1.55;90.21;100503.69;5068783;28;20195;-69
2022/01/14 03:47:51;;;;;;;14.33;10.87;;;;;;;-1.50;89.74;100501.34;5069158;28;20219;-69
2022/01/14 03:50:18;;;;;;;14.57;10.27;;;;;;;-1.46;89.77;100488.09;5066309;28;20717;-69
2022/01/14 03:52:45;;;;;;;14.93;10.80;;;;;;;-1.53;90.20;100482.00;5066472;28;20223;-69
2022/01/14 03:55:13;;;;;;;19.20;11.47;;;;;;;-1.51;89.58;100490.44;5068571;28;20293;-69
2022/01/14 03:57:40;;;;;;;17.73;10.97;;;;;;;-1.42;90.10;100505.84;5069355;28;20211;-70
2022/01/14 04:00:08;;;;;;;14.20;8.77;;;;;;;-1.48;89.63;100475.47;5068743;28;20270;-69
2022/01/14 04:02:35;;;;;;;18.20;11.70;;;;;;;-1.31;89.68;100512.13;5070883;28;20579;-70
2022/01/14 04:05:02;;;;;;;25.07;12.37;;;;;;;-1.35;90.03;100492.69;5071588;28;20929;-69
2022/01/14 04:07:29;;;;;;;23.97;12.27;;;;;;;-1.20;90.31;100507.47;5071994;28;20672;-69
2022/01/14 04:09:56;;;;;;;23.57;9.80;;;;;;;-1.23;90.05;100508.19;5069732;28;20196;-68
2022/01/14 04:12:42;;;;;;;15.13;10.47;;;;;;;-1.31;90.48;100494.50;5069845;28;20213;-69
2022/01/14 04:17:55;;;;;;;15.27;10.13;;;;;;;-1.28;90.01;100498.78;5062318;28;20207;-69
2022/01/14 04:20:21;;;;;;;13.53;9.70;;;;;;;-1.28;89.24;100499.66;5060013;28;20668;-69
2022/01/14 04:22:49;;;;;;;18.27;10.73;;;;;;;-1.27;89.41;100493.81;5068956;28;20199;-69
2022/01/14 04:25:16;;;;;;;15.10;10.27;;;;;;;-1.27;89.14;100496.34;5070626;28;20203;-69
2022/01/14 04:27:44;;;;;;;20.90;11.60;;;;;;;-1.33;89.07;100486.06;5072400;28;20198;-69
2022/01/14 04:30:13;;;;;;;18.37;10.50;;;;;;;-1.34;89.78;100493.56;5070077;28;20196;-69
2022/01/14 04:32:39;;;;;;;18.17;10.60;;;;;;;-1.37;90.26;100489.28;5070698;28;20281;-69
2022/01/14 04:35:07;;;;;;;14.27;9.63;;;;;;;-1.41;90.04;100461.44;5068722;28;20192;-69
2022/01/14 04:37:34;;;;;;;16.70;10.27;;;;;;;-1.35;90.17;100476.72;5068334;28;20258;-69
2022/01/14 04:40:00;;;;;;;19.07;11.97;;;;;;;-1.39;90.00;100475.78;5068475;28;20258;-69
2022/01/14 04:42:28;;;;;;;19.20;11.87;;;;;;;-1.36;89.99;100485.97;5066585;28;20197;-69
2022/01/14 04:44:56;;;;;;;18.93;11.00;;;;;;;-1.33;89.92;100478.53;5071463;28;20195;-69
2022/01/14 04:47:32;;;;;;;21.77;11.00;;;;;;;-1.33;89.82;100470.97;5070471;28;20225;-69
2022/01/14 04:49:59;;;;;;;18.47;10.60;;;;;;;-1.35;90.24;100469.19;5071927;28;20203;-70
2022/01/14 04:52:27;;;;;;;21.50;12.33;;;;;;;-1.37;90.27;100474.19;5068098;28;20200;-69
2022/01/14 04:54:54;;;;;;;23.93;12.20;;;;;;;-1.30;89.82;100466.06;5072077;28;20196;-70
2022/01/14 04:57:21;;;;;;;18.80;11.90;;;;;;;-1.31;89.81;100474.41;5071306;28;20560;-69
2022/01/14 04:59:48;;;;;;;15.00;9.53;;;;;;;-1.45;90.17;100450.41;5067547;28;20222;-69
2022/01/14 05:02:17;;;;;;;19.03;11.93;;;;;;;-1.29;89.94;100452.66;5065162;28;20242;-69
2022/01/14 05:04:45;;;;;;;18.50;11.73;;;;;;;-1.21;90.02;100478.06;5065735;28;20654;-69
2022/01/14 05:07:22;;;;;;;16.97;10.60;;;;;;;-1.21;89.39;100465.50;5068702;28;20200;-69
2022/01/14 05:09:57;;;;;;;20.03;10.63;;;;;;;-1.27;89.42;100455.25;5071776;28;20202;-69
2022/01/14 05:12:24;;;;;;;20.27;11.10;;;;;;;-1.31;89.97;100449.25;5071756;28;20261;-69
2022/01/14 05:14:51;;;;;;;16.07;9.20;;;;;;;-1.25;89.54;100448.59;5070856;28;20220;-70
2022/01/14 05:17:19;;;;;;;24.97;11.43;;;;;;;-1.25;89.78;100449.44;5071252;28;20192;-69
2022/01/14 05:19:46;;;;;;;20.43;9.33;;;;;;;-1.23;89.74;100457.06;5071553;28;20230;-69
2022/01/14 05:22:13;;;;;;;21.80;10.93;;;;;;;-1.19;89.22;100454.69;5066802;28;20204;-70
2022/01/14 05:24:40;;;;;;;18.87;11.57;;;;;;;-1.19;89.39;100463.88;5069348;28;20218;-69
2022/01/14 05:27:07;;;;;;;18.03;9.73;;;;;;;-1.18;89.36;100460.56;5068362;28;20196;-69
2022/01/14 05:29:34;;;;;;;13.93;9.50;;;;;;;-1.11;89.12;100458.31;5069819;28;20207;-70
2022/01/14 05:32:03;;;;;;;24.27;11.70;;;;;;;-1.06;88.71;100445.88;5071009;28;20200;-69
2022/01/14 05:34:32;;;;;;;20.90;11.37;;;;;;;-0.98;88.31;100428.50;5070829;28;20246;-70
2022/01/14 05:37:00;;;;;;;19.40;9.93;;;;;;;-0.94;87.98;100427.81;5071341;28;20683;-70
2022/01/14 05:39:27;;;;;;;16.43;9.03;;;;;;;-1.00;87.26;100399.94;5070815;28;20204;-70
2022/01/14 05:41:55;;;;;;;19.60;10.00;;;;;;;-0.89;87.08;100408.66;5071195;28;20192;-70
2022/01/14 05:44:23;;;;;;;15.27;10.97;;;;;;;-0.78;85.66;100417.44;5069880;28;20639;-69
2022/01/14 05:46:50;;;;;;;18.07;10.03;;;;;;;-0.73;85.55;100410.84;5068534;28;20200;-69
2022/01/14 05:49:17;;;;;;;22.80;10.93;;;;;;;-0.83;86.65;100401.31;5065187;28;20222;-70
2022/01/14 05:51:46;;;;;;;16.07;10.80;;;;;;;-0.95;86.69;100390.88;5071295;28;20204;-70
2022/01/14 05:54:13;;;;;;;14.10;11.43;;;;;;;-0.88;86.84;100396.16;5069287;28;20222;-69
2022/01/14 05:56:40;;;;;;;20.37;10.20;;;;;;;-0.88;85.50;100380.19;5070506;28;20203;-70
2022/01/14 05:59:07;;;;;;;14.63;9.33;;;;;;;-0.74;84.00;100382.31;5069766;28;20207;-70
2022/01/14 06:01:34;;;;;;;12.47;8.23;;;;;;;-0.53;83.33;100399.72;5065754;28;20238;-71
2022/01/14 06:04:02;;;;;;;16.63;10.83;;;;;;;-0.43;82.75;100406.75;5069697;28;20230;-69
2022/01/14 06:06:29;;;;;;;12.43;9.63;;;;;;;-0.42;82.68;100398.38;5065560;28;20193;-70
2022/01/14 06:08:58;;;;;;;17.27;9.30;;;;;;;-0.29;81.89;100413.03;5065969;28;20235;-69
2022/01/14 06:11:26;;;;;;;14.17;9.23;;;;;;;-0.24;81.93;100415.72;5067071;28;20660;-69
2022/01/14 06:13:53;;;;;;;14.87;10.17;;;;;;;-0.31;83.52;100407.13;5065901;28;20219;-70
2022/01/14 06:16:21;;;;;;;26.67;11.63;;;;;;;-0.37;83.77;100401.91;5067521;28;20196;-70
2022/01/14 06:18:48;;;;;;;17.17;10.40;;;;;;;-0.60;84.38;100368.47;5068322;28;20216;-69
2022/01/14 06:21:15;;;;;;;13.30;9.27;;;;;;;-0.44;84.86;100394.97;5068021;28;20196;-69
2022/01/14 06:23:42;;;;;;;20.20;10.43;;;;;;;-0.49;85.34;100391.47;5068384;28;20242;-69
2022/01/14 06:26:10;;;;;;;16.40;10.40;;;;;;;-0.53;86.13;100384.63;5067405;28;20188;-69
2022/01/14 06:28:37;;;;;;;17.30;10.60;;;;;;;-0.52;85.84;100381.31;5069863;28;20676;-70
2022/01/14 06:31:04;;;;;;;21.70;10.00;;;;;;;-0.47;85.17;100369.69;5062231;28;20203;-69
2022/01/14 06:33:31;;;;;;;13.43;9.03;;;;;;;-0.47;85.30;100367.16;5058372;28;20227;-69
2022/01/14 06:35:57;;;;;;;14.50;9.17;;;;;;;-0.42;85.36;100363.09;5060301;28;20560;-69
2022/01/14 06:38:24;;;;;;;10.73;8.80;;;;;;;-0.39;85.42;100355.66;5068754;28;20192;-69
2022/01/14 06:40:51;;;;;;;14.30;10.17;;;;;;;-0.33;84.42;100358.38;5067494;28;20231;-69
2022/01/14 06:43:19;;;;;;;14.87;10.40;;;;;;;-0.25;83.71;100351.84;5065981;28;20200;-70
2022/01/14 06:45:46;;;;;;;15.83;9.73;;;;;;;-0.20;83.79;100360.41;5068110;28;20592;-69
2022/01/14 06:48:13;;;;;;;15.90;9.37;;;;;;;-0.11;82.85;100363.19;5064854;28;20204;-69
2022/01/14 06:50:40;;;;;;;12.97;9.43;;;;;;;-0.01;82.83;100352.56;5070061;28;20226;-70
2022/01/14 06:53:07;;;;;;;12.57;9.20;;;;;;;0.07;81.99;100354.41;5068433;28;20611;-70
2022/01/14 06:55:34;;;;;;;12.17;8.77;;;;;;;0.02;82.47;100335.78;5065496;28;20204;-70
2022/01/14 06:58:00;;;;;;;16.00;10.00;;;;;;;0.07;82.09;100339.28;5067233;28;20271;-70
2022/01/14 07:00:29;;;;;;;12.40;9.40;;;;;;;0.18;81.52;100358.06;5069203;28;20204;-69
2022/01/14 07:02:56;;;;;;;21.73;8.37;;;;;;;0.31;82.23;100360.09;5070179;28;20247;-70
2022/01/14 07:05:22;;;;;;;13.73;9.57;;;;;;;0.30;80.60;100355.88;5062466;28;20678;-69
2022/01/14 07:07:49;;;;;;;15.20;9.33;;;;;;;0.44;81.40;100368.03;5067210;28;20228;-69
2022/01/14 07:10:16;;;;;;;19.03;9.10;;;;;;;0.52;80.49;100366.53;5066571;28;20576;-71
2022/01/14 07:12:45;;;;;;;18.50;9.80;;;;;;;0.59;80.31;100372.59;5067133;28;20257;-67
2022/01/14 07:15:14;;;;;;;10.67;9.43;;;;;;;0.69;80.79;100364.44;5062488;28;20223;-56
2022/01/14 07:17:44;;;;;;;14.20;9.20;;;;;;;0.75;80.45;100354.50;5066637;28;20204;-56
2022/01/14 07:20:13;;;;;;;12.73;8.83;;;;;;;0.81;80.03;100339.50;5061867;28;20206;-71
2022/01/14 07:22:41;;;;;;;12.93;10.27;;;;;;;0.87;79.93;100337.13;5063896;28;20200;-69
2022/01/14 07:25:09;;;;;;;19.53;10.40;;;;;;;0.90;79.83;100337.22;5066737;28;20220;-69
2022/01/14 07:27:37;;;;;;;13.37;10.63;;;;;;;0.96;80.42;100339.88;5065931;28;20682;-68
2022/01/14 07:30:04;;;;;;;16.17;9.57;;;;;;;0.97;81.25;100336.53;5064613;28;20210;-69
2022/01/14 07:32:31;;;;;;;15.37;9.73;;;;;;;1.02;80.81;100334.13;5066315;28;20204;-69
2022/01/14 07:34:59;;;;;;;17.13;10.70;;;;;;;1.08;81.59;100330.88;5067046;28;20219;-69
2022/01/14 07:37:26;;;;;;;10.10;8.33;;;;;;;1.19;81.37;100325.25;5065931;28;20201;-70
2022/01/14 07:39:53;;;;;;;11.17;8.30;;;;;;;1.27;80.87;100330.44;5071768;28;20687;-68
2022/01/14 07:42:20;;;;;;;13.90;10.20;;;;;;;1.34;80.51;100322.19;5069025;28;20261;-68
2022/01/14 07:44:47;;;;;;;13.00;8.77;;;;;;;1.42;80.63;100323.22;5067904;28;20189;-69
2022/01/14 07:47:15;;;;;;;17.67;8.60;;;;;;;1.44;79.64;100314.84;5066218;28;20207;-71
2022/01/14 07:49:42;;;;;;;11.47;8.63;;;;;;;1.57;78.48;100321.00;5068270;28;20549;-70
2022/01/14 07:52:10;;;;;;;13.90;8.90;;;;;;;1.62;78.64;100299.19;5069095;28;20196;-70
2022/01/14 07:54:37;;;;;;;12.80;7.27;;;;;;;1.72;79.47;100290.97;5071040;28;20219;-71
2022/01/14 07:57:07;;;;;;;20.70;8.63;;;;;;;1.79;79.43;100287.75;5071032;28;20199;-70
2022/01/14 07:59:36;;;;;;;11.97;7.30;;;;;;;1.89;78.15;100289.63;5070101;28;20202;-71
2022/01/14 08:02:03;;;;;;;8.00;7.20;;;;;;;2.02;79.32;100281.44;5069661;28;20204;-71
2022/01/14 08:04:33;;;;;;;11.70;7.67;;;;;;;2.18;78.42;100276.66;5068715;28;20197;-72
2022/01/14 08:07:08;;;;;;;9.00;7.77;;;;;;;2.32;77.82;100275.22;5072627;28;20208;-71
2022/01/14 08:09:37;;;;;;;7.80;6.60;;;;;;;2.45;78.25;100259.41;5071927;28;20231;-71
2022/01/14 08:12:06;;;;;;;15.63;7.90;;;;;;;2.45;78.16;100244.22;5069965;28;20249;-71
2022/01/14 08:14:33;;;;;;;9.57;7.83;;;;;;;2.62;78.88;100263.03;5071139;28;20223;-72
2022/01/14 08:17:00;;;;;;;8.70;7.20;;;;;;;2.74;77.40;100270.84;5071381;28;20200;-71
2022/01/14 08:19:32;;;;;;;9.97;7.73;;;;;;;2.82;78.08;100269.25;5070957;28;20208;-72
2022/01/14 08:21:59;;;;;;;9.40;7.73;;;;;;;2.88;77.88;100266.81;5069838;28;20212;-72
2022/01/14 08:24:26;;;;;;;13.00;8.20;;;;;;;2.95;77.70;100270.28;5070374;28;20214;-72
2022/01/14 08:26:55;;;;;;;15.93;8.90;;;;;;;3.09;78.42;100268.81;5073003;28;20223;-72
2022/01/14 08:29:21;;;;;;;10.90;9.07;;;;;;;3.17;79.04;100252.88;5072214;28;20230;-71
2022/01/14 08:31:48;;;;;;;9.80;8.00;;;;;;;3.26;78.15;100247.09;5072040;28;20207;-73
2022/01/14 08:34:15;;;;;;;13.53;8.23;;;;;;;3.28;78.40;100244.56;5071618;28;20220;-73
2022/01/14 08:36:42;;;;;;;9.30;8.03;;;;;;;3.35;79.17;100241.28;5069852;28;20298;-73
2022/01/14 08:39:09;;;;;;;17.93;8.60;;;;;;;3.39;78.84;100235.41;5068569;28;20641;-73
2022/01/14 08:41:36;;;;;;;9.27;8.17;;;;;;;3.42;80.04;100238.00;5070456;28;20286;-73
2022/01/14 08:44:04;;;;;;;10.10;8.10;;;;;;;3.54;80.23;100233.06;5067035;28;20204;-72
2022/01/14 08:46:31;;;;;;;19.37;8.93;;;;;;;3.60;81.42;100233.13;5070596;28;20690;-73
2022/01/14 08:49:00;;;;;;;14.23;8.40;;;;;;;3.68;80.80;100226.47;5070887;28;20200;-73
2022/01/14 08:51:28;;;;;;;12.43;9.43;;;;;;;3.74;81.60;100221.44;5071309;28;20224;-73
2022/01/14 08:53:54;;;;;;;16.23;9.67;;;;;;;3.71;82.99;100221.44;5071562;28;20199;-72
2022/01/14 08:56:21;;;;;;;9.50;8.50;;;;;;;3.85;83.56;100219.84;5070793;28;20208;-73
2022/01/14 08:58:48;;;;;;;10.73;8.87;;;;;;;3.93;83.75;100195.44;5069315;28;20686;-73
2022/01/14 09:01:16;;;;;;;12.80;8.83;;;;;;;4.03;83.94;100199.75;5063474;28;20207;-73
2022/01/14 09:03:43;;;;;;;16.40;9.17;;;;;;;4.05;84.32;100197.22;5068553;28;20657;-73
2022/01/14 09:06:10;;;;;;;15.03;10.37;;;;;;;4.10;85.31;100186.25;5070431;28;20208;-73
2022/01/14 09:08:37;;;;;;;13.77;9.50;;;;;;;4.17;86.15;100185.47;5067083;28;20805;-73
2022/01/14 09:11:06;;;;;;;16.03;8.90;;;;;;;4.28;85.84;100165.25;5065750;28;20258;-72
2022/01/14 09:13:33;;;;;;;10.27;8.17;;;;;;;4.38;85.55;100161.09;5056735;28;20294;-73
2022/01/14 09:15:59;;;;;;;8.70;7.33;;;;;;;4.47;85.94;100151.00;5068037;28;20228;-72
2022/01/14 09:18:28;;;;;;;11.40;7.90;;;;;;;4.60;86.74;100152.78;5062583;28;20207;-72
2022/01/14 09:20:56;;;;;;;11.53;9.17;;;;;;;4.71;87.97;100141.00;5068315;28;20204;-73
2022/01/14 09:23:25;;;;;;;8.57;7.67;;;;;;;4.83;87.38;100130.91;5067148;28;20207;-72
2022/01/14 09:25:53;;;;;;;10.53;8.53;;;;;;;4.91;86.75;100124.13;5069654;28;20207;-73
2022/01/14 09:28:20;;;;;;;9.90;8.20;;;;;;;5.00;87.17;100124.22;5070387;28;20211;-72
2022/01/14 09:30:47;;;;;;;10.10;7.80;;;;;;;5.00;86.16;100108.97;5067206;28;20669;-73
2022/01/14 09:33:17;;;;;;;16.83;8.67;;;;;;;5.12;87.69;100113.22;5061854;28;20207;-72
2022/01/14 09:35:46;;;;;;;9.20;7.10;;;;;;;5.19;87.07;100105.63;5069112;28;20251;-72
2022/01/14 09:38:13;;;;;;;23.27;6.23;;;;;;;5.26;86.69;100107.34;5063907;28;20202;-73
2022/01/14 09:40:44;;;;;;;7.23;5.87;;;;;;;5.33;86.84;100098.03;5061927;28;20208;-73
2022/01/14 09:43:14;;;;;;;9.50;7.93;;;;;;;5.45;87.41;100080.25;5065710;28;20200;-73
2022/01/14 09:45:41;;;;;;;9.70;5.83;;;;;;;5.48;87.64;100085.34;5063392;28;20286;-70
2022/01/14 09:48:09;;;;;;;7.90;6.60;;;;;;;5.49;87.16;100070.94;5066279;28;20564;-71
2022/01/14 09:50:36;;;;;;;8.03;6.30;;;;;;;5.53;86.05;100075.16;5068691;28;20196;-71
2022/01/14 09:53:04;;;;;;;6.20;5.60;;;;;;;5.56;86.67;100080.25;5065111;28;20269;-72
2022/01/14 09:55:31;;;;;;;13.00;6.50;;;;;;;5.59;86.30;100080.28;5066537;28;20223;-71
2022/01/14 09:58:00;;;;;;;8.20;5.60;;;;;;;5.60;85.50;100062.47;5066086;28;20210;-72
2022/01/14 10:00:26;;;;;;;7.33;6.17;;;;;;;5.64;85.02;100069.25;5067610;28;20216;-71
2022/01/14 10:02:53;;;;;;;5.37;5.03;;;;;;;5.73;85.76;100063.31;5066548;28;20211;-71
2022/01/14 10:05:36;;;;;;;7.03;6.30;;;;;;;5.79;86.46;100037.84;5068869;28;20196;-70
2022/01/14 10:08:18;;;;;;;7.77;6.70;;;;;;;5.90;86.66;100046.38;5060371;28;20240;-70
2022/01/14 10:10:47;;;;;;;7.37;6.57;;;;;;;5.92;84.90;100033.63;5060396;28;20204;-70
2022/01/14 10:13:16;;;;;;;8.20;6.63;;;;;;;5.95;85.60;100019.22;5069788;28;20249;-70
2022/01/14 10:15:48;;;;;;;9.70;5.50;;;;;;;5.98;84.43;100014.13;5067713;28;20243;-70
2022/01/14 10:18:17;;;;;;;7.27;6.67;;;;;;;6.12;86.02;100016.63;5065146;28;20207;-68
2022/01/14 10:20:43;;;;;;;6.23;5.63;;;;;;;6.20;84.51;99994.56;5068507;28;20203;-69
2022/01/14 10:23:12;;;;;;;6.07;5.57;;;;;;;6.33;86.45;100001.31;5060428;28;20205;-71
2022/01/14 10:25:41;;;;;;;6.10;5.50;;;;;;;6.39;84.69;100002.97;5065459;28;20196;-70
2022/01/14 10:28:19;;;;;;;6.27;5.50;;;;;;;6.52;86.06;99991.91;5059595;28;20231;-70
2022/01/14 10:30:47;;;;;;;6.73;5.73;;;;;;;6.56;86.04;99989.31;5062132;28;20732;-71
2022/01/14 10:33:18;;;;;;;7.47;5.70;;;;;;;6.62;86.10;99988.47;5065317;28;20227;-70
2022/01/14 10:35:46;;;;;;;6.00;5.40;;;;;;;6.67;85.35;99982.47;5062682;28;20224;-71
2022/01/14 10:38:15;;;;;;;4.77;4.43;;;;;;;6.73;85.90;99981.59;5061746;28;20295;-74
2022/01/14 10:40:46;;;;;;;5.13;4.80;;;;;;;6.71;84.56;99973.97;5062022;28;20208;-72
2022/01/14 10:43:16;;;;;;;9.83;5.90;;;;;;;6.81;85.55;99969.66;5061671;28;20583;-72
2022/01/14 10:45:44;;;;;;;4.97;4.57;;;;;;;6.90;85.01;99956.88;5067566;28;20671;-72
2022/01/14 10:48:13;;;;;;;5.57;5.10;;;;;;;6.96;84.21;99944.06;5062154;28;20892;-72
2022/01/14 10:50:43;;;;;;;5.50;5.10;;;;;;;7.03;84.57;99948.28;5064433;28;20676;-72
2022/01/14 10:53:13;;;;;;;5.90;5.50;;;;;;;7.06;84.11;99950.81;5062701;28;20200;-71
2022/01/14 10:55:43;;;;;;;9.03;8.13;;;;;;;7.09;85.25;99939.72;5069696;28;20743;-72
2022/01/14 10:58:15;;;;;;;7.03;6.53;;;;;;;7.15;85.07;99939.69;5069862;28;20211;-72
2022/01/14 11:00:44;;;;;;;8.67;7.87;;;;;;;7.28;84.42;99925.97;5067532;28;20204;-71
2022/01/14 11:03:11;;;;;;;11.40;7.33;;;;;;;7.31;84.43;99910.66;5064823;28;20204;-71
2022/01/14 11:05:38;;;;;;;5.67;5.03;;;;;;;7.18;83.44;99889.50;5063429;28;20211;-72
2022/01/14 11:08:06;;;;;;;11.03;6.23;;;;;;;7.38;84.32;99899.53;5064191;28;20235;-70
2022/01/14 11:10:35;;;;;;;6.53;6.03;;;;;;;7.36;84.01;99898.72;5051252;28;20204;-72
2022/01/14 11:13:06;;;;;;;6.27;5.50;;;;;;;7.33;83.44;99903.84;5049035;28;20282;-72
2022/01/14 11:15:35;;;;;;;7.70;5.83;;;;;;;7.30;84.35;99904.69;5047714;28;20220;-73
2022/01/14 11:18:06;;;;;;;6.57;5.83;;;;;;;7.37;84.78;99893.59;5048880;28;20208;-74
2022/01/14 11:23:14;;;;;;;5.77;5.27;;;;;;;7.39;84.21;99894.44;5047710;28;20201;-73
2022/01/14 11:23:21;;;;;;;5.97;5.47;;;;;;;7.37;83.99;99883.38;5048952;28;20197;-72
2022/01/14 11:25:57;;;;;;;5.53;5.13;;;;;;;7.45;84.76;99877.38;5049514;28;20196;-70
2022/01/14 11:28:28;;;;;;;6.37;5.73;;;;;;;7.50;83.88;99875.59;5048179;28;20200;-71
2022/01/14 11:30:59;;;;;;;6.70;6.10;;;;;;;7.56;85.64;99865.38;5048612;28;20204;-71
2022/01/14 11:33:40;;;;;;;5.87;5.37;;;;;;;7.66;83.87;99872.03;5048060;28;20254;-70
2022/01/14 11:36:07;;;;;;;6.50;5.70;;;;;;;7.74;83.76;99867.69;5048155;28;20226;-71
2022/01/14 11:38:37;;;;;;;17.67;6.40;;;;;;;7.69;83.39;99854.97;5048719;28;20208;-71
2022/01/14 11:41:05;;;;;;;8.53;6.73;;;;;;;7.65;83.10;99855.06;5046688;28;20208;-70
2022/01/14 11:43:43;;;;;;;9.93;7.23;;;;;;;7.66;82.95;99851.63;5048491;28;20205;-70